createdAt,value
2019-04-29T00:07:32.235Z,69.63
2019-04-29T00:22:39.949Z,69.87
2019-04-29T00:37:54.468Z,70.00
2019-04-29T00:53:04.426Z,70.03
2019-04-29T01:08:10.957Z,69.96
2019-04-29T01:23:18.726Z,70.06
2019-04-29T01:38:25.628Z,70.15
2019-04-29T01:53:33.421Z,69.84
2019-04-29T02:08:40.599Z,69.82
2019-04-29T02:23:54.893Z,69.75
2019-04-29T02:39:18.863Z,69.75
2019-04-29T02:54:27.337Z,69.58
2019-04-29T03:09:52.437Z,69.58
2019-04-29T03:24:59.528Z,69.26
2019-04-29T03:40:08.627Z,69.73
2019-04-29T03:55:18.341Z,69.30
2019-04-29T04:10:26.036Z,69.50
2019-04-29T04:25:33.681Z,69.17
2019-04-29T04:40:51.437Z,69.27
2019-04-29T04:56:01.006Z,69.12
2019-04-29T05:11:09.557Z,69.26
2019-04-29T05:26:17.112Z,68.95
2019-04-29T05:41:24.899Z,69.04
2019-04-29T05:56:31.883Z,68.84
2019-04-29T06:11:39.807Z,68.53
2019-04-29T06:26:46.553Z,68.73
2019-04-29T06:41:53.685Z,68.39
2019-04-29T06:57:00.753Z,68.13
2019-04-29T07:12:12.363Z,67.85
2019-04-29T07:27:17.981Z,67.85
2019-04-29T07:42:32.040Z,67.20
2019-04-29T07:57:34.105Z,67.37
2019-04-29T08:12:42.424Z,67.04
2019-04-29T08:27:49.771Z,66.16
2019-04-29T08:43:15.966Z,65.78
2019-04-29T08:58:28.168Z,65.32
2019-04-29T09:13:38.627Z,65.48
2019-04-29T09:28:49.797Z,65.80
2019-04-29T09:44:03.904Z,65.37
2019-04-29T09:59:24.945Z,64.02
2019-04-29T10:14:32.320Z,63.08
2019-04-29T10:29:39.550Z,62.48
2019-04-29T10:45:03.134Z,62.03
2019-04-29T11:00:31.582Z,62.56
2019-04-29T11:15:38.948Z,61.95
2019-04-29T11:30:45.930Z,62.10
2019-04-29T11:45:55.229Z,60.80
2019-04-29T12:01:08.335Z,60.31
2019-04-29T12:16:19.696Z,59.70
2019-04-29T12:31:29.368Z,59.90
2019-04-29T12:46:38.563Z,60.49
2019-04-29T13:02:04.288Z,60.09
2019-04-29T13:17:31.569Z,60.55
2019-04-29T13:32:38.635Z,61.00
2019-04-29T13:47:50.568Z,61.64
2019-04-29T14:03:01.236Z,61.78
2019-04-29T14:18:11.581Z,62.13
2019-04-29T14:33:24.319Z,61.79
2019-04-29T14:48:41.556Z,61.63
2019-04-29T15:03:58.842Z,61.14
2019-04-29T15:19:12.757Z,61.41
2019-04-29T15:34:17.140Z,61.74
2019-04-29T15:49:24.840Z,62.83
2019-04-29T16:04:35.637Z,63.22
2019-04-29T16:19:43.561Z,63.56
2019-04-29T16:34:52.889Z,63.38
2019-04-29T16:50:04.883Z,63.87
2019-04-29T17:05:10.937Z,64.60
2019-04-29T17:20:19.993Z,65.01
2019-04-29T17:35:29.086Z,65.19
2019-04-29T17:50:46.210Z,65.58
2019-04-29T18:05:58.228Z,65.91
2019-04-29T18:21:06.884Z,66.20
2019-04-29T18:36:23.459Z,66.58
2019-04-29T18:51:25.613Z,66.83
2019-04-29T19:06:32.779Z,67.22
2019-04-29T19:21:39.492Z,67.23
2019-04-29T19:36:46.247Z,67.47
2019-04-29T19:51:55.187Z,67.42
2019-04-29T20:07:06.411Z,67.80
2019-04-29T20:22:11.721Z,67.95
2019-04-29T20:37:19.784Z,67.92
2019-04-29T20:52:26.635Z,68.16
2019-04-29T21:07:34.040Z,68.20
2019-04-29T21:22:42.779Z,68.19
2019-04-29T21:38:02.428Z,68.24
2019-04-29T21:53:09.536Z,68.24
2019-04-29T22:08:20.733Z,68.41
2019-04-29T22:23:25.371Z,68.51
2019-04-29T22:38:32.318Z,68.52
2019-04-29T22:53:40.006Z,68.40
2019-04-29T23:08:48.239Z,68.30
2019-04-29T23:24:17.143Z,68.45
2019-04-29T23:39:21.569Z,68.71
2019-04-29T23:54:29.724Z,68.90
